createdAt,value
2023-05-08T00:00:02.042Z,89.99
2023-05-08T00:05:00.731Z,90.29
2023-05-08T00:10:00.545Z,90.77
2023-05-08T00:15:01.838Z,90.19
2023-05-08T00:20:00.544Z,90.43
2023-05-08T00:25:00.665Z,90.39
2023-05-08T00:30:00.566Z,90.53
2023-05-08T00:35:00.625Z,90.60
2023-05-08T00:40:00.568Z,90.15
2023-05-08T00:45:00.557Z,90.00
2023-05-08T00:50:01.555Z,90.07
2023-05-08T00:55:02.048Z,90.10
2023-05-08T01:00:03.351Z,88.57
2023-05-08T01:05:01.849Z,90.21
2023-05-08T01:10:00.590Z,90.46
2023-05-08T01:15:12.827Z,88.62
2023-05-08T01:20:20.445Z,88.90
2023-05-08T01:25:20.463Z,88.97
2023-05-08T01:30:20.452Z,88.93
2023-05-08T01:35:13.155Z,89.10
2023-05-08T01:40:10.005Z,89.20
2023-05-08T01:45:05.036Z,89.32
2023-05-08T01:50:14.425Z,89.34
2023-05-08T01:55:08.784Z,89.57
2023-05-08T02:00:04.127Z,89.61
2023-05-08T02:05:03.982Z,89.62
2023-05-08T02:10:02.232Z,89.78
2023-05-08T02:15:01.721Z,90.47
2023-05-08T02:20:01.827Z,90.13
2023-05-08T02:25:00.618Z,90.37
2023-05-08T02:30:00.883Z,90.60
2023-05-08T02:35:03.496Z,90.48
2023-05-08T02:40:02.898Z,90.67
2023-05-08T02:45:01.575Z,90.89
2023-05-08T02:50:12.687Z,90.87
2023-05-08T02:55:11.784Z,91.04
2023-05-08T03:00:15.202Z,90.69
2023-05-08T03:05:09.663Z,91.02
2023-05-08T03:10:06.005Z,90.87
2023-05-08T03:15:09.655Z,90.80
2023-05-08T03:20:04.121Z,91.07
2023-05-08T03:25:03.612Z,91.18
2023-05-08T03:30:01.478Z,90.79
2023-05-08T03:35:02.424Z,90.95
2023-05-08T03:40:00.795Z,91.00
2023-05-08T03:45:02.263Z,91.07
2023-05-08T03:50:01.646Z,90.99
2023-05-08T03:55:00.704Z,91.31
2023-05-08T04:00:10.129Z,91.34
2023-05-08T04:05:05.758Z,91.43
2023-05-08T04:10:03.817Z,91.46
2023-05-08T04:15:04.902Z,91.49
2023-05-08T04:20:03.617Z,91.69
2023-05-08T04:25:04.302Z,91.69
2023-05-08T04:30:01.465Z,91.43
2023-05-08T04:35:01.677Z,91.40
2023-05-08T04:40:00.890Z,91.45
2023-05-08T04:45:00.738Z,91.35
2023-05-08T04:50:02.730Z,91.40
2023-05-08T04:55:00.647Z,91.36
2023-05-08T05:00:02.123Z,91.28
2023-05-08T05:05:00.563Z,91.29
2023-05-08T05:10:00.606Z,90.97
2023-05-08T05:15:00.606Z,90.68
2023-05-08T05:20:00.669Z,90.57
2023-05-08T05:25:00.571Z,90.22
2023-05-08T05:30:00.560Z,90.10
2023-05-08T05:35:00.659Z,89.91
2023-05-08T05:40:00.722Z,90.11
2023-05-08T05:45:00.558Z,90.17
2023-05-08T05:50:00.560Z,89.76
2023-05-08T05:55:00.533Z,89.74
2023-05-08T06:00:01.303Z,89.29
2023-05-08T06:05:00.576Z,89.78
2023-05-08T06:10:00.638Z,88.99
2023-05-08T06:15:00.588Z,88.30
2023-05-08T06:20:00.592Z,88.00
2023-05-08T06:25:00.569Z,88.48
2023-05-08T06:30:01.511Z,88.22
2023-05-08T06:35:00.558Z,86.90
2023-05-08T06:40:11.677Z,87.19
2023-05-08T06:45:00.644Z,86.74
2023-05-08T06:50:00.567Z,87.68
2023-05-08T06:55:00.560Z,87.43
2023-05-08T07:00:01.230Z,86.81
2023-05-08T07:05:00.636Z,87.25
2023-05-08T07:10:00.618Z,87.04
2023-05-08T07:15:05.557Z,88.15
2023-05-08T07:20:00.553Z,87.98
2023-05-08T07:25:00.567Z,88.67
2023-05-08T07:30:00.589Z,87.58
2023-05-08T07:35:02.010Z,87.56
2023-05-08T07:40:00.548Z,87.22
2023-05-08T07:45:00.572Z,87.02
2023-05-08T07:50:00.999Z,86.60
2023-05-08T07:55:00.627Z,85.25
2023-05-08T08:00:01.796Z,83.92
2023-05-08T08:05:00.549Z,82.70
2023-05-08T08:10:01.379Z,81.56
2023-05-08T08:15:01.002Z,81.65
2023-05-08T08:20:00.562Z,79.22
2023-05-08T08:25:00.613Z,78.56
2023-05-08T08:30:16.032Z,78.13
2023-05-08T08:35:00.578Z,76.98
2023-05-08T08:40:01.195Z,76.43
2023-05-08T08:45:00.977Z,74.93
2023-05-08T08:50:02.470Z,69.89
2023-05-08T08:55:01.835Z,69.26
2023-05-08T09:00:04.086Z,67.70
2023-05-08T09:05:01.811Z,67.06
2023-05-08T09:10:03.458Z,70.29
2023-05-08T09:15:00.636Z,71.65
2023-05-08T09:20:01.016Z,71.36
2023-05-08T09:25:00.561Z,73.60
2023-05-08T09:30:03.246Z,74.44
2023-05-08T09:35:00.967Z,74.70
2023-05-08T09:40:19.060Z,74.40
2023-05-08T09:45:00.580Z,73.34
2023-05-08T09:50:07.577Z,73.82
2023-05-08T09:55:02.265Z,73.10
2023-05-08T10:00:06.513Z,71.52
2023-05-08T10:05:00.962Z,72.04
2023-05-08T10:10:03.104Z,70.76
2023-05-08T10:15:00.586Z,72.97
2023-05-08T10:20:05.964Z,73.62
2023-05-08T10:25:01.768Z,74.05
2023-05-08T10:30:02.211Z,74.20
2023-05-08T10:35:02.472Z,73.59
2023-05-08T10:40:02.817Z,74.12
2023-05-08T10:45:01.738Z,73.19
2023-05-08T10:50:20.442Z,73.59
2023-05-08T10:55:14.944Z,70.55
2023-05-08T11:00:00.994Z,71.59
2023-05-08T11:05:14.399Z,71.08
2023-05-08T11:10:11.735Z,72.55
2023-05-08T11:15:02.734Z,72.24
2023-05-08T11:20:03.667Z,72.13
2023-05-08T11:25:03.156Z,71.07
2023-05-08T11:30:20.461Z,72.36
2023-05-08T11:35:00.547Z,72.71
2023-05-08T11:40:20.428Z,72.70
2023-05-08T11:45:07.390Z,71.83
2023-05-08T11:50:01.188Z,71.17
2023-05-08T11:55:03.490Z,69.25
2023-05-08T12:00:09.644Z,68.70
2023-05-08T12:05:00.694Z,69.55
2023-05-08T12:10:01.755Z,67.09
2023-05-08T12:15:00.588Z,68.09
2023-05-08T12:20:12.101Z,63.99
2023-05-08T12:25:02.230Z,63.39
2023-05-08T12:30:04.252Z,62.34
2023-05-08T12:35:00.816Z,66.06
2023-05-08T12:40:00.593Z,65.49
2023-05-08T12:45:00.547Z,66.09
2023-05-08T12:50:00.591Z,66.48
2023-05-08T12:55:00.558Z,67.14
2023-05-08T13:00:04.996Z,65.94
2023-05-08T13:05:00.671Z,66.82
2023-05-08T13:10:01.250Z,64.99
2023-05-08T13:15:00.637Z,66.06
2023-05-08T13:20:00.667Z,67.80
2023-05-08T13:25:00.594Z,68.91
2023-05-08T13:30:00.569Z,68.50
2023-05-08T13:35:13.656Z,68.60
2023-05-08T13:40:00.588Z,67.65
2023-05-08T13:45:00.543Z,68.80
2023-05-08T13:50:00.625Z,67.98
2023-05-08T13:55:00.555Z,68.00
2023-05-08T14:00:03.044Z,64.91
2023-05-08T14:05:00.822Z,63.28
2023-05-08T14:10:00.828Z,63.45
2023-05-08T14:15:02.128Z,63.11
2023-05-08T14:20:00.596Z,63.95
2023-05-08T14:25:00.535Z,64.03
2023-05-08T14:35:02.606Z,62.32
2023-05-08T14:40:00.630Z,63.76
2023-05-08T14:45:00.682Z,63.05
2023-05-08T14:50:00.565Z,63.07
2023-05-08T14:55:00.927Z,63.64
2023-05-08T15:00:01.263Z,64.61
2023-05-08T15:05:00.592Z,66.18
2023-05-08T15:10:01.312Z,67.13
2023-05-08T15:15:02.671Z,66.22
2023-05-08T15:20:02.498Z,66.79
2023-05-08T15:25:00.571Z,66.84
2023-05-08T15:30:00.577Z,66.98
2023-05-08T15:35:00.608Z,66.84
2023-05-08T15:40:01.326Z,67.79
2023-05-08T15:45:00.557Z,67.62
2023-05-08T15:50:00.570Z,66.83
2023-05-08T15:55:00.631Z,67.53
2023-05-08T16:00:01.152Z,67.75
2023-05-08T16:05:00.590Z,68.12
2023-05-08T16:10:00.626Z,69.17
2023-05-08T16:15:00.597Z,68.18
2023-05-08T16:20:00.616Z,68.66
2023-05-08T16:25:00.631Z,68.68
2023-05-08T16:30:00.578Z,67.94
2023-05-08T16:35:00.623Z,68.53
2023-05-08T16:40:00.659Z,68.58
2023-05-08T16:45:00.591Z,68.38
2023-05-08T16:50:00.758Z,68.67
2023-05-08T16:55:00.710Z,68.69
2023-05-08T17:00:01.424Z,69.67
2023-05-08T17:05:00.597Z,69.14
2023-05-08T17:10:00.597Z,71.03
2023-05-08T17:15:00.563Z,71.12
2023-05-08T17:20:00.713Z,71.41
2023-05-08T17:25:00.668Z,72.42
2023-05-08T17:30:01.594Z,72.92
2023-05-08T17:35:00.597Z,73.50
2023-05-08T17:40:00.543Z,74.42
2023-05-08T17:45:00.634Z,74.72
2023-05-08T17:50:00.568Z,74.77
2023-05-08T17:55:00.565Z,74.62
2023-05-08T18:00:01.212Z,74.23
2023-05-08T18:05:00.644Z,74.81
2023-05-08T18:10:00.549Z,74.79
2023-05-08T18:15:03.495Z,74.99
2023-05-08T18:20:01.231Z,74.73
2023-05-08T18:25:00.681Z,75.74
2023-05-08T18:30:00.657Z,75.34
2023-05-08T18:35:00.659Z,75.54
2023-05-08T18:40:00.538Z,75.81
2023-05-08T18:45:02.104Z,76.10
2023-05-08T18:50:00.550Z,76.00
2023-05-08T18:55:00.607Z,76.68
2023-05-08T19:00:01.315Z,76.65
2023-05-08T19:05:00.608Z,76.64
2023-05-08T19:10:00.590Z,76.95
2023-05-08T19:15:00.607Z,77.25
2023-05-08T19:20:00.557Z,77.82
2023-05-08T19:25:00.614Z,77.65
2023-05-08T19:30:00.547Z,77.43
2023-05-08T19:35:00.682Z,78.12
2023-05-08T19:40:00.579Z,78.27
2023-05-08T19:45:00.575Z,78.38
2023-05-08T19:50:00.559Z,78.77
2023-05-08T19:55:00.689Z,78.88
2023-05-08T20:00:01.851Z,79.44
2023-05-08T20:10:00.554Z,80.91
2023-05-08T20:15:00.558Z,80.48
2023-05-08T20:20:00.806Z,81.27
2023-05-08T20:25:02.749Z,81.04
2023-05-08T20:30:00.628Z,81.22
2023-05-08T20:35:00.583Z,81.27
2023-05-08T20:40:00.615Z,81.05
2023-05-08T20:45:00.640Z,81.57
2023-05-08T20:50:01.185Z,81.90
2023-05-08T20:55:00.537Z,81.47
2023-05-08T21:00:01.209Z,81.45
2023-05-08T21:05:00.824Z,81.56
2023-05-08T21:10:00.578Z,81.78
2023-05-08T21:15:00.591Z,81.38
2023-05-08T21:20:00.543Z,81.46
2023-05-08T21:25:00.540Z,81.83
2023-05-08T21:30:00.557Z,81.34
2023-05-08T21:35:01.576Z,82.32
2023-05-08T21:40:01.369Z,82.22
2023-05-08T21:45:00.634Z,82.24
2023-05-08T21:50:00.551Z,82.67
2023-05-08T21:55:01.243Z,82.93
2023-05-08T22:00:02.215Z,82.89
2023-05-08T22:05:00.860Z,82.57
2023-05-08T22:10:00.652Z,82.93
2023-05-08T22:15:00.593Z,82.84
2023-05-08T22:20:00.593Z,82.63
2023-05-08T22:25:00.709Z,82.72
2023-05-08T22:30:00.651Z,82.60
2023-05-08T22:35:00.711Z,82.59
2023-05-08T22:40:00.596Z,82.55
2023-05-08T22:45:00.714Z,82.76
2023-05-08T22:50:00.650Z,82.52
2023-05-08T22:55:00.775Z,82.77
2023-05-08T23:00:01.093Z,83.92
2023-05-08T23:05:00.986Z,84.38
2023-05-08T23:10:00.572Z,83.91
2023-05-08T23:15:00.622Z,83.90
2023-05-08T23:20:00.712Z,84.21
2023-05-08T23:25:00.570Z,84.65
2023-05-08T23:30:00.539Z,84.05
2023-05-08T23:35:00.575Z,84.04
2023-05-08T23:40:00.668Z,84.04
2023-05-08T23:45:00.553Z,84.10
2023-05-08T23:50:00.630Z,83.96
2023-05-08T23:55:00.562Z,83.95
